sensor_id;sensor_type;location;lat;lon;timestamp;P1;durP1;ratioP1;P2;durP2;ratioP2
10216;SDS011;5152;59.674;16.838;2023-03-01T00:00:16;4.37;;;1.20;;
10216;SDS011;5152;59.674;16.838;2023-03-01T00:02:43;2.07;;;1.20;;
10216;SDS011;5152;59.674;16.838;2023-03-01T00:05:12;2.93;;;1.10;;
10216;SDS011;5152;59.674;16.838;2023-03-01T00:07:39;1.77;;;1.27;;
10216;SDS011;5152;59.674;16.838;2023-03-01T00:10:06;1.50;;;0.97;;
10216;SDS011;5152;59.674;16.838;2023-03-01T00:12:33;3.63;;;1.40;;
10216;SDS011;5152;59.674;16.838;2023-03-01T00:15:01;1.60;;;1.07;;
10216;SDS011;5152;59.674;16.838;2023-03-01T00:17:29;2.57;;;1.20;;
10216;SDS011;5152;59.674;16.838;2023-03-01T00:19:56;2.63;;;1.10;;
10216;SDS011;5152;59.674;16.838;2023-03-01T00:22:25;3.33;;;1.10;;
10216;SDS011;5152;59.674;16.838;2023-03-01T00:24:53;3.00;;;1.23;;
10216;SDS011;5152;59.674;16.838;2023-03-01T00:27:20;3.47;;;1.03;;
10216;SDS011;5152;59.674;16.838;2023-03-01T00:29:47;2.43;;;1.23;;
10216;SDS011;5152;59.674;16.838;2023-03-01T00:32:14;2.37;;;1.17;;
10216;SDS011;5152;59.674;16.838;2023-03-01T00:34:41;3.03;;;1.27;;
10216;SDS011;5152;59.674;16.838;2023-03-01T00:37:07;2.90;;;1.20;;
10216;SDS011;5152;59.674;16.838;2023-03-01T00:39:36;4.20;;;1.57;;
10216;SDS011;5152;59.674;16.838;2023-03-01T00:42:03;2.90;;;1.00;;
10216;SDS011;5152;59.674;16.838;2023-03-01T00:44:29;3.00;;;1.00;;
10216;SDS011;5152;59.674;16.838;2023-03-01T00:46:56;1.03;;;0.93;;
10216;SDS011;5152;59.674;16.838;2023-03-01T00:49:23;3.20;;;0.87;;
10216;SDS011;5152;59.674;16.838;2023-03-01T00:51:52;1.27;;;0.93;;
10216;SDS011;5152;59.674;16.838;2023-03-01T00:54:20;3.80;;;0.87;;
10216;SDS011;5152;59.674;16.838;2023-03-01T00:56:48;2.60;;;0.73;;
10216;SDS011;5152;59.674;16.838;2023-03-01T00:59:15;1.73;;;0.67;;
10216;SDS011;5152;59.674;16.838;2023-03-01T01:01:42;2.10;;;1.00;;
10216;SDS011;5152;59.674;16.838;2023-03-01T01:04:09;1.07;;;0.80;;
10216;SDS011;5152;59.674;16.838;2023-03-01T01:06:37;2.47;;;1.30;;
10216;SDS011;5152;59.674;16.838;2023-03-01T01:09:08;1.47;;;1.00;;
10216;SDS011;5152;59.674;16.838;2023-03-01T01:11:42;1.53;;;0.90;;
10216;SDS011;5152;59.674;16.838;2023-03-01T01:14:10;1.30;;;0.80;;
10216;SDS011;5152;59.674;16.838;2023-03-01T01:16:37;2.30;;;0.80;;
10216;SDS011;5152;59.674;16.838;2023-03-01T01:19:04;0.97;;;0.83;;
10216;SDS011;5152;59.674;16.838;2023-03-01T01:21:32;1.80;;;0.67;;
10216;SDS011;5152;59.674;16.838;2023-03-01T01:23:59;1.30;;;0.87;;
10216;SDS011;5152;59.674;16.838;2023-03-01T01:26:27;2.43;;;0.80;;
10216;SDS011;5152;59.674;16.838;2023-03-01T01:28:58;1.80;;;0.83;;
10216;SDS011;5152;59.674;16.838;2023-03-01T01:31:28;3.90;;;0.80;;
10216;SDS011;5152;59.674;16.838;2023-03-01T01:33:55;0.93;;;0.67;;
10216;SDS011;5152;59.674;16.838;2023-03-01T01:36:22;0.93;;;0.70;;
10216;SDS011;5152;59.674;16.838;2023-03-01T01:38:49;1.77;;;0.80;;
10216;SDS011;5152;59.674;16.838;2023-03-01T01:41:17;0.97;;;0.70;;
10216;SDS011;5152;59.674;16.838;2023-03-01T01:43:46;0.80;;;0.70;;
10216;SDS011;5152;59.674;16.838;2023-03-01T01:46:16;2.70;;;0.73;;
10216;SDS011;5152;59.674;16.838;2023-03-01T01:48:50;1.40;;;0.70;;
10216;SDS011;5152;59.674;16.838;2023-03-01T01:51:27;3.10;;;0.70;;
10216;SDS011;5152;59.674;16.838;2023-03-01T01:54:05;0.97;;;0.87;;
10216;SDS011;5152;59.674;16.838;2023-03-01T01:56:36;1.10;;;0.90;;
10216;SDS011;5152;59.674;16.838;2023-03-01T01:59:04;2.43;;;0.70;;
10216;SDS011;5152;59.674;16.838;2023-03-01T02:01:31;2.27;;;0.80;;
10216;SDS011;5152;59.674;16.838;2023-03-01T02:03:59;2.07;;;1.10;;
10216;SDS011;5152;59.674;16.838;2023-03-01T02:06:27;2.07;;;1.10;;
10216;SDS011;5152;59.674;16.838;2023-03-01T02:08:56;1.43;;;0.83;;
10216;SDS011;5152;59.674;16.838;2023-03-01T02:11:25;3.00;;;1.20;;
10216;SDS011;5152;59.674;16.838;2023-03-01T02:13:56;4.43;;;1.40;;
10216;SDS011;5152;59.674;16.838;2023-03-01T02:16:23;2.87;;;1.73;;
10216;SDS011;5152;59.674;16.838;2023-03-01T02:18:50;2.20;;;1.80;;
10216;SDS011;5152;59.674;16.838;2023-03-01T02:21:20;4.30;;;1.93;;
10216;SDS011;5152;59.674;16.838;2023-03-01T02:23:56;1.80;;;1.13;;
10216;SDS011;5152;59.674;16.838;2023-03-01T02:26:31;5.20;;;3.07;;
10216;SDS011;5152;59.674;16.838;2023-03-01T02:29:01;6.80;;;3.33;;
10216;SDS011;5152;59.674;16.838;2023-03-01T02:31:30;6.83;;;4.10;;
10216;SDS011;5152;59.674;16.838;2023-03-01T02:34:11;4.50;;;3.60;;
10216;SDS011;5152;59.674;16.838;2023-03-01T02:36:40;3.67;;;1.83;;
10216;SDS011;5152;59.674;16.838;2023-03-01T02:39:10;7.50;;;4.57;;
10216;SDS011;5152;59.674;16.838;2023-03-01T02:41:41;5.03;;;2.63;;
10216;SDS011;5152;59.674;16.838;2023-03-01T02:44:11;9.20;;;5.23;;
10216;SDS011;5152;59.674;16.838;2023-03-01T02:46:41;8.50;;;4.00;;
10216;SDS011;5152;59.674;16.838;2023-03-01T02:49:17;6.73;;;3.90;;
10216;SDS011;5152;59.674;16.838;2023-03-01T02:51:48;14.53;;;8.03;;
10216;SDS011;5152;59.674;16.838;2023-03-01T02:54:33;7.33;;;4.30;;
10216;SDS011;5152;59.674;16.838;2023-03-01T02:57:05;8.37;;;4.80;;
10216;SDS011;5152;59.674;16.838;2023-03-01T02:59:34;14.53;;;8.47;;
10216;SDS011;5152;59.674;16.838;2023-03-01T03:02:05;15.57;;;8.87;;
10216;SDS011;5152;59.674;16.838;2023-03-01T03:04:32;14.33;;;8.77;;
10216;SDS011;5152;59.674;16.838;2023-03-01T03:06:59;11.23;;;6.83;;
10216;SDS011;5152;59.674;16.838;2023-03-01T03:09:26;14.37;;;7.83;;
10216;SDS011;5152;59.674;16.838;2023-03-01T03:11:53;13.80;;;7.63;;
10216;SDS011;5152;59.674;16.838;2023-03-01T03:14:20;14.67;;;7.93;;
10216;SDS011;5152;59.674;16.838;2023-03-01T03:16:49;18.77;;;11.27;;
10216;SDS011;5152;59.674;16.838;2023-03-01T03:19:16;18.07;;;10.67;;
10216;SDS011;5152;59.674;16.838;2023-03-01T03:21:44;21.53;;;11.60;;
10216;SDS011;5152;59.674;16.838;2023-03-01T03:24:11;11.47;;;6.77;;
10216;SDS011;5152;59.674;16.838;2023-03-01T03:26:38;20.20;;;12.23;;
10216;SDS011;5152;59.674;16.838;2023-03-01T03:29:05;21.50;;;12.27;;
10216;SDS011;5152;59.674;16.838;2023-03-01T03:31:32;17.70;;;10.57;;
10216;SDS011;5152;59.674;16.838;2023-03-01T03:34:00;6.63;;;3.93;;
10216;SDS011;5152;59.674;16.838;2023-03-01T03:36:27;16.00;;;9.43;;
10216;SDS011;5152;59.674;16.838;2023-03-01T03:38:54;16.63;;;8.80;;
10216;SDS011;5152;59.674;16.838;2023-03-01T03:41:21;22.60;;;11.63;;
10216;SDS011;5152;59.674;16.838;2023-03-01T03:43:48;9.47;;;5.50;;
10216;SDS011;5152;59.674;16.838;2023-03-01T03:46:15;25.13;;;12.30;;
10216;SDS011;5152;59.674;16.838;2023-03-01T03:48:42;35.90;;;18.93;;
10216;SDS011;5152;59.674;16.838;2023-03-01T03:51:12;27.40;;;14.90;;
10216;SDS011;5152;59.674;16.838;2023-03-01T03:53:40;19.10;;;10.63;;
10216;SDS011;5152;59.674;16.838;2023-03-01T03:56:07;25.33;;;15.27;;
10216;SDS011;5152;59.674;16.838;2023-03-01T03:58:35;26.57;;;14.93;;
10216;SDS011;5152;59.674;16.838;2023-03-01T04:01:02;22.83;;;14.47;;
10216;SDS011;5152;59.674;16.838;2023-03-01T04:03:30;24.17;;;14.70;;
10216;SDS011;5152;59.674;16.838;2023-03-01T04:05:58;20.40;;;12.07;;
10216;SDS011;5152;59.674;16.838;2023-03-01T04:08:27;25.60;;;14.63;;
10216;SDS011;5152;59.674;16.838;2023-03-01T04:10:57;26.13;;;15.07;;
10216;SDS011;5152;59.674;16.838;2023-03-01T04:13:25;28.70;;;15.30;;
10216;SDS011;5152;59.674;16.838;2023-03-01T04:15:52;16.00;;;7.27;;
10216;SDS011;5152;59.674;16.838;2023-03-01T04:18:20;28.30;;;16.57;;
10216;SDS011;5152;59.674;16.838;2023-03-01T04:20:49;45.40;;;22.40;;
10216;SDS011;5152;59.674;16.838;2023-03-01T04:23:20;19.47;;;9.93;;
10216;SDS011;5152;59.674;16.838;2023-03-01T04:25:49;23.27;;;11.90;;
10216;SDS011;5152;59.674;16.838;2023-03-01T04:28:20;32.13;;;16.43;;
10216;SDS011;5152;59.674;16.838;2023-03-01T04:30:47;47.07;;;23.30;;
10216;SDS011;5152;59.674;16.838;2023-03-01T04:33:14;61.70;;;29.27;;
10216;SDS011;5152;59.674;16.838;2023-03-01T04:35:41;49.60;;;23.63;;
10216;SDS011;5152;59.674;16.838;2023-03-01T04:38:08;56.37;;;30.03;;
10216;SDS011;5152;59.674;16.838;2023-03-01T04:40:35;50.23;;;27.40;;
10216;SDS011;5152;59.674;16.838;2023-03-01T04:43:04;41.30;;;23.30;;
10216;SDS011;5152;59.674;16.838;2023-03-01T04:45:31;41.20;;;22.47;;
10216;SDS011;5152;59.674;16.838;2023-03-01T04:48:00;41.03;;;21.33;;
10216;SDS011;5152;59.674;16.838;2023-03-01T04:50:27;36.30;;;21.07;;
10216;SDS011;5152;59.674;16.838;2023-03-01T04:52:54;17.07;;;9.50;;
10216;SDS011;5152;59.674;16.838;2023-03-01T04:55:23;28.63;;;16.13;;
10216;SDS011;5152;59.674;16.838;2023-03-01T04:57:51;17.53;;;10.60;;
10216;SDS011;5152;59.674;16.838;2023-03-01T05:00:19;16.53;;;9.37;;
10216;SDS011;5152;59.674;16.838;2023-03-01T05:02:48;36.17;;;18.17;;
10216;SDS011;5152;59.674;16.838;2023-03-01T05:05:19;64.07;;;29.73;;
10216;SDS011;5152;59.674;16.838;2023-03-01T05:07:50;49.50;;;25.17;;
10216;SDS011;5152;59.674;16.838;2023-03-01T05:10:21;59.07;;;30.77;;
10216;SDS011;5152;59.674;16.838;2023-03-01T05:12:48;34.63;;;20.27;;
10216;SDS011;5152;59.674;16.838;2023-03-01T05:15:15;22.87;;;13.33;;
10216;SDS011;5152;59.674;16.838;2023-03-01T05:17:43;57.40;;;29.00;;
10216;SDS011;5152;59.674;16.838;2023-03-01T05:20:11;49.30;;;26.87;;
10216;SDS011;5152;59.674;16.838;2023-03-01T05:22:38;47.87;;;26.00;;
10216;SDS011;5152;59.674;16.838;2023-03-01T05:25:05;57.90;;;29.70;;
10216;SDS011;5152;59.674;16.838;2023-03-01T05:27:33;58.53;;;32.97;;
10216;SDS011;5152;59.674;16.838;2023-03-01T05:30:00;60.80;;;30.10;;
10216;SDS011;5152;59.674;16.838;2023-03-01T05:32:39;55.37;;;30.13;;
10216;SDS011;5152;59.674;16.838;2023-03-01T05:35:09;20.30;;;11.53;;
10216;SDS011;5152;59.674;16.838;2023-03-01T05:37:38;33.47;;;16.80;;
10216;SDS011;5152;59.674;16.838;2023-03-01T05:40:07;30.20;;;17.10;;
10216;SDS011;5152;59.674;16.838;2023-03-01T05:42:42;55.57;;;28.40;;
10216;SDS011;5152;59.674;16.838;2023-03-01T05:45:10;61.43;;;33.33;;
10216;SDS011;5152;59.674;16.838;2023-03-01T05:47:38;61.73;;;31.70;;
10216;SDS011;5152;59.674;16.838;2023-03-01T05:50:10;53.37;;;30.30;;
10216;SDS011;5152;59.674;16.838;2023-03-01T05:52:38;54.03;;;29.10;;
10216;SDS011;5152;59.674;16.838;2023-03-01T05:55:06;27.57;;;15.33;;
10216;SDS011;5152;59.674;16.838;2023-03-01T05:57:33;62.13;;;31.60;;
10216;SDS011;5152;59.674;16.838;2023-03-01T06:00:00;50.03;;;28.03;;
10216;SDS011;5152;59.674;16.838;2023-03-01T06:02:28;22.87;;;12.47;;
10216;SDS011;5152;59.674;16.838;2023-03-01T06:04:55;71.57;;;36.33;;
10216;SDS011;5152;59.674;16.838;2023-03-01T06:07:23;22.27;;;12.17;;
10216;SDS011;5152;59.674;16.838;2023-03-01T06:09:50;59.87;;;29.67;;
10216;SDS011;5152;59.674;16.838;2023-03-01T06:12:17;50.07;;;26.97;;
10216;SDS011;5152;59.674;16.838;2023-03-01T06:14:44;80.07;;;38.70;;
10216;SDS011;5152;59.674;16.838;2023-03-01T06:17:12;84.67;;;41.80;;
10216;SDS011;5152;59.674;16.838;2023-03-01T06:19:39;74.43;;;39.47;;
10216;SDS011;5152;59.674;16.838;2023-03-01T06:22:06;71.10;;;36.73;;
10216;SDS011;5152;59.674;16.838;2023-03-01T06:24:34;50.23;;;26.03;;
10216;SDS011;5152;59.674;16.838;2023-03-01T06:27:01;72.93;;;37.20;;
10216;SDS011;5152;59.674;16.838;2023-03-01T06:29:28;57.33;;;31.27;;
10216;SDS011;5152;59.674;16.838;2023-03-01T06:31:55;56.67;;;28.67;;
10216;SDS011;5152;59.674;16.838;2023-03-01T06:34:22;59.63;;;28.07;;
10216;SDS011;5152;59.674;16.838;2023-03-01T06:36:49;78.20;;;37.63;;
10216;SDS011;5152;59.674;16.838;2023-03-01T06:39:16;96.53;;;44.80;;
10216;SDS011;5152;59.674;16.838;2023-03-01T06:41:44;84.57;;;42.43;;
10216;SDS011;5152;59.674;16.838;2023-03-01T06:44:11;87.50;;;43.17;;
10216;SDS011;5152;59.674;16.838;2023-03-01T06:46:38;66.10;;;32.93;;
10216;SDS011;5152;59.674;16.838;2023-03-01T06:49:05;69.60;;;36.50;;
10216;SDS011;5152;59.674;16.838;2023-03-01T06:51:34;54.53;;;31.10;;
10216;SDS011;5152;59.674;16.838;2023-03-01T06:54:02;56.00;;;29.23;;
10216;SDS011;5152;59.674;16.838;2023-03-01T06:56:29;22.77;;;12.33;;
10216;SDS011;5152;59.674;16.838;2023-03-01T06:58:57;36.13;;;19.40;;
10216;SDS011;5152;59.674;16.838;2023-03-01T07:01:24;53.90;;;29.37;;
10216;SDS011;5152;59.674;16.838;2023-03-01T07:03:51;76.93;;;40.80;;
10216;SDS011;5152;59.674;16.838;2023-03-01T07:06:18;72.87;;;35.57;;
10216;SDS011;5152;59.674;16.838;2023-03-01T07:08:45;75.43;;;38.03;;
10216;SDS011;5152;59.674;16.838;2023-03-01T07:11:12;31.50;;;16.77;;
10216;SDS011;5152;59.674;16.838;2023-03-01T07:13:39;70.77;;;36.17;;
10216;SDS011;5152;59.674;16.838;2023-03-01T07:16:08;49.43;;;26.13;;
10216;SDS011;5152;59.674;16.838;2023-03-01T07:18:35;12.33;;;6.53;;
10216;SDS011;5152;59.674;16.838;2023-03-01T07:21:06;97.90;;;45.63;;
10216;SDS011;5152;59.674;16.838;2023-03-01T07:23:33;90.53;;;44.50;;
10216;SDS011;5152;59.674;16.838;2023-03-01T07:26:00;69.80;;;34.67;;
10216;SDS011;5152;59.674;16.838;2023-03-01T07:28:28;53.67;;;29.67;;
10216;SDS011;5152;59.674;16.838;2023-03-01T07:31:00;148.10;;;57.33;;
10216;SDS011;5152;59.674;16.838;2023-03-01T07:33:29;101.67;;;45.70;;
10216;SDS011;5152;59.674;16.838;2023-03-01T07:35:57;129.37;;;54.23;;
10216;SDS011;5152;59.674;16.838;2023-03-01T07:38:25;117.50;;;53.73;;
10216;SDS011;5152;59.674;16.838;2023-03-01T07:40:52;142.27;;;61.43;;
10216;SDS011;5152;59.674;16.838;2023-03-01T07:43:19;46.27;;;21.43;;
10216;SDS011;5152;59.674;16.838;2023-03-01T07:45:48;96.57;;;48.77;;
10216;SDS011;5152;59.674;16.838;2023-03-01T07:48:15;112.13;;;53.00;;
10216;SDS011;5152;59.674;16.838;2023-03-01T07:50:44;91.80;;;46.03;;
10216;SDS011;5152;59.674;16.838;2023-03-01T07:53:10;77.40;;;38.23;;
10216;SDS011;5152;59.674;16.838;2023-03-01T07:55:38;111.30;;;51.97;;
10216;SDS011;5152;59.674;16.838;2023-03-01T07:58:05;93.83;;;45.53;;
10216;SDS011;5152;59.674;16.838;2023-03-01T08:00:31;115.17;;;52.53;;
10216;SDS011;5152;59.674;16.838;2023-03-01T08:02:59;132.37;;;59.30;;
10216;SDS011;5152;59.674;16.838;2023-03-01T08:05:26;130.20;;;57.27;;
10216;SDS011;5152;59.674;16.838;2023-03-01T08:07:55;61.93;;;30.83;;
10216;SDS011;5152;59.674;16.838;2023-03-01T08:10:22;110.73;;;50.97;;
10216;SDS011;5152;59.674;16.838;2023-03-01T08:12:50;41.10;;;23.63;;
10216;SDS011;5152;59.674;16.838;2023-03-01T08:15:17;84.87;;;41.00;;
10216;SDS011;5152;59.674;16.838;2023-03-01T08:17:45;105.87;;;50.13;;
10216;SDS011;5152;59.674;16.838;2023-03-01T08:20:12;87.30;;;43.63;;
10216;SDS011;5152;59.674;16.838;2023-03-01T08:22:39;97.13;;;50.60;;
10216;SDS011;5152;59.674;16.838;2023-03-01T08:25:07;78.00;;;41.07;;
10216;SDS011;5152;59.674;16.838;2023-03-01T08:27:35;66.27;;;33.77;;
10216;SDS011;5152;59.674;16.838;2023-03-01T08:30:02;38.60;;;21.27;;
10216;SDS011;5152;59.674;16.838;2023-03-01T08:32:29;66.17;;;32.73;;
10216;SDS011;5152;59.674;16.838;2023-03-01T08:34:56;39.50;;;22.80;;
10216;SDS011;5152;59.674;16.838;2023-03-01T08:37:23;38.70;;;19.47;;
10216;SDS011;5152;59.674;16.838;2023-03-01T08:39:50;96.50;;;51.00;;
10216;SDS011;5152;59.674;16.838;2023-03-01T08:42:18;133.07;;;64.33;;
10216;SDS011;5152;59.674;16.838;2023-03-01T08:44:45;54.30;;;26.73;;
10216;SDS011;5152;59.674;16.838;2023-03-01T08:47:12;58.53;;;30.53;;
10216;SDS011;5152;59.674;16.838;2023-03-01T08:49:39;97.67;;;49.20;;
10216;SDS011;5152;59.674;16.838;2023-03-01T08:52:06;45.47;;;23.77;;
10216;SDS011;5152;59.674;16.838;2023-03-01T08:54:33;113.93;;;55.17;;
10216;SDS011;5152;59.674;16.838;2023-03-01T08:57:01;165.37;;;78.70;;
10216;SDS011;5152;59.674;16.838;2023-03-01T08:59:30;126.50;;;64.37;;
10216;SDS011;5152;59.674;16.838;2023-03-01T09:02:02;74.50;;;38.00;;
10216;SDS011;5152;59.674;16.838;2023-03-01T09:04:29;176.23;;;86.80;;
10216;SDS011;5152;59.674;16.838;2023-03-01T09:06:56;91.80;;;48.90;;
10216;SDS011;5152;59.674;16.838;2023-03-01T09:09:22;165.93;;;84.20;;
10216;SDS011;5152;59.674;16.838;2023-03-01T09:11:49;82.20;;;39.77;;
10216;SDS011;5152;59.674;16.838;2023-03-01T09:14:16;115.40;;;56.73;;
10216;SDS011;5152;59.674;16.838;2023-03-01T09:16:45;92.47;;;46.50;;
10216;SDS011;5152;59.674;16.838;2023-03-01T09:19:12;163.10;;;82.87;;
10216;SDS011;5152;59.674;16.838;2023-03-01T09:21:39;21.73;;;12.17;;
10216;SDS011;5152;59.674;16.838;2023-03-01T09:24:06;51.47;;;26.80;;
10216;SDS011;5152;59.674;16.838;2023-03-01T09:26:38;142.13;;;71.17;;
10216;SDS011;5152;59.674;16.838;2023-03-01T09:29:05;25.60;;;13.53;;
10216;SDS011;5152;59.674;16.838;2023-03-01T09:31:34;139.87;;;74.67;;
10216;SDS011;5152;59.674;16.838;2023-03-01T09:34:02;146.13;;;76.17;;
10216;SDS011;5152;59.674;16.838;2023-03-01T09:36:29;55.37;;;28.70;;
10216;SDS011;5152;59.674;16.838;2023-03-01T09:38:57;105.63;;;55.60;;
10216;SDS011;5152;59.674;16.838;2023-03-01T09:41:34;120.60;;;64.13;;
10216;SDS011;5152;59.674;16.838;2023-03-01T09:44:18;18.03;;;10.00;;
10216;SDS011;5152;59.674;16.838;2023-03-01T09:46:50;75.50;;;38.67;;
10216;SDS011;5152;59.674;16.838;2023-03-01T09:49:20;46.77;;;26.33;;
10216;SDS011;5152;59.674;16.838;2023-03-01T09:51:54;123.90;;;64.73;;
10216;SDS011;5152;59.674;16.838;2023-03-01T09:54:22;98.10;;;49.60;;
10216;SDS011;5152;59.674;16.838;2023-03-01T09:56:53;107.30;;;56.93;;
10216;SDS011;5152;59.674;16.838;2023-03-01T09:59:27;114.27;;;59.80;;
10216;SDS011;5152;59.674;16.838;2023-03-01T10:01:59;107.50;;;57.13;;
10216;SDS011;5152;59.674;16.838;2023-03-01T10:04:40;61.93;;;34.73;;
10216;SDS011;5152;59.674;16.838;2023-03-01T10:07:17;103.87;;;56.77;;
10216;SDS011;5152;59.674;16.838;2023-03-01T10:09:52;93.07;;;52.87;;
10216;SDS011;5152;59.674;16.838;2023-03-01T10:12:20;71.00;;;39.23;;
10216;SDS011;5152;59.674;16.838;2023-03-01T10:14:51;88.67;;;49.17;;
10216;SDS011;5152;59.674;16.838;2023-03-01T10:17:24;91.67;;;50.57;;
10216;SDS011;5152;59.674;16.838;2023-03-01T10:19:56;67.47;;;38.27;;
10216;SDS011;5152;59.674;16.838;2023-03-01T10:22:27;80.87;;;46.07;;
10216;SDS011;5152;59.674;16.838;2023-03-01T10:24:57;81.53;;;46.83;;
10216;SDS011;5152;59.674;16.838;2023-03-01T10:27:25;47.33;;;28.37;;
10216;SDS011;5152;59.674;16.838;2023-03-01T10:29:57;52.13;;;29.70;;
10216;SDS011;5152;59.674;16.838;2023-03-01T10:32:28;76.00;;;41.63;;
10216;SDS011;5152;59.674;16.838;2023-03-01T10:34:57;74.03;;;42.43;;
10216;SDS011;5152;59.674;16.838;2023-03-01T10:37:24;55.57;;;31.77;;
10216;SDS011;5152;59.674;16.838;2023-03-01T10:39:58;36.50;;;20.73;;
10216;SDS011;5152;59.674;16.838;2023-03-01T10:42:31;43.47;;;25.73;;
10216;SDS011;5152;59.674;16.838;2023-03-01T10:45:09;35.40;;;21.27;;
10216;SDS011;5152;59.674;16.838;2023-03-01T10:47:42;32.97;;;20.10;;
10216;SDS011;5152;59.674;16.838;2023-03-01T10:50:19;40.33;;;22.40;;
10216;SDS011;5152;59.674;16.838;2023-03-01T10:52:55;33.03;;;19.60;;
10216;SDS011;5152;59.674;16.838;2023-03-01T10:55:24;22.33;;;12.87;;
10216;SDS011;5152;59.674;16.838;2023-03-01T10:58:06;58.13;;;34.97;;
10216;SDS011;5152;59.674;16.838;2023-03-01T11:00:34;60.73;;;36.23;;
10216;SDS011;5152;59.674;16.838;2023-03-01T11:03:13;62.50;;;35.50;;
10216;SDS011;5152;59.674;16.838;2023-03-01T11:05:56;56.93;;;31.47;;
10216;SDS011;5152;59.674;16.838;2023-03-01T11:08:29;9.33;;;5.43;;
10216;SDS011;5152;59.674;16.838;2023-03-01T11:11:13;5.10;;;2.50;;
10216;SDS011;5152;59.674;16.838;2023-03-01T11:13:49;22.97;;;12.47;;
10216;SDS011;5152;59.674;16.838;2023-03-01T11:16:22;29.30;;;16.33;;
10216;SDS011;5152;59.674;16.838;2023-03-01T11:18:59;1.13;;;0.83;;
10216;SDS011;5152;59.674;16.838;2023-03-01T11:21:29;26.57;;;16.00;;
10216;SDS011;5152;59.674;16.838;2023-03-01T11:23:59;47.97;;;26.90;;
10216;SDS011;5152;59.674;16.838;2023-03-01T11:26:28;37.57;;;18.63;;
10216;SDS011;5152;59.674;16.838;2023-03-01T11:28:56;53.57;;;29.10;;
10216;SDS011;5152;59.674;16.838;2023-03-01T11:31:27;47.03;;;28.47;;
10216;SDS011;5152;59.674;16.838;2023-03-01T11:33:55;25.67;;;14.00;;
10216;SDS011;5152;59.674;16.838;2023-03-01T11:36:28;24.03;;;14.37;;
10216;SDS011;5152;59.674;16.838;2023-03-01T11:39:02;0.83;;;0.77;;
10216;SDS011;5152;59.674;16.838;2023-03-01T11:41:33;42.43;;;24.47;;
10216;SDS011;5152;59.674;16.838;2023-03-01T11:44:03;13.80;;;7.63;;
10216;SDS011;5152;59.674;16.838;2023-03-01T11:46:44;43.00;;;25.27;;
10216;SDS011;5152;59.674;16.838;2023-03-01T11:49:38;9.33;;;5.23;;
10216;SDS011;5152;59.674;16.838;2023-03-01T11:52:26;13.90;;;8.27;;
10216;SDS011;5152;59.674;16.838;2023-03-01T11:55:02;9.53;;;5.77;;
10216;SDS011;5152;59.674;16.838;2023-03-01T11:57:44;40.90;;;24.63;;
10216;SDS011;5152;59.674;16.838;2023-03-01T12:00:24;31.03;;;18.63;;
10216;SDS011;5152;59.674;16.838;2023-03-01T12:05:59;36.93;;;22.47;;
10216;SDS011;5152;59.674;16.838;2023-03-01T12:08:34;36.00;;;22.03;;
10216;SDS011;5152;59.674;16.838;2023-03-01T12:11:07;34.03;;;20.43;;
10216;SDS011;5152;59.674;16.838;2023-03-01T12:13:53;9.97;;;6.23;;
10216;SDS011;5152;59.674;16.838;2023-03-01T12:16:56;15.13;;;9.10;;
10216;SDS011;5152;59.674;16.838;2023-03-01T12:19:43;34.03;;;20.87;;
10216;SDS011;5152;59.674;16.838;2023-03-01T12:22:21;37.73;;;21.13;;
10216;SDS011;5152;59.674;16.838;2023-03-01T12:25:06;34.83;;;20.80;;
10216;SDS011;5152;59.674;16.838;2023-03-01T12:28:02;31.83;;;19.27;;
10216;SDS011;5152;59.674;16.838;2023-03-01T12:30:37;20.13;;;11.93;;
10216;SDS011;5152;59.674;16.838;2023-03-01T12:33:15;35.83;;;22.30;;
10216;SDS011;5152;59.674;16.838;2023-03-01T12:35:51;29.70;;;17.07;;
10216;SDS011;5152;59.674;16.838;2023-03-01T12:38:31;29.33;;;16.93;;
10216;SDS011;5152;59.674;16.838;2023-03-01T12:43:56;29.33;;;17.10;;
10216;SDS011;5152;59.674;16.838;2023-03-01T12:46:31;30.40;;;18.73;;
10216;SDS011;5152;59.674;16.838;2023-03-01T12:49:05;13.20;;;7.47;;
10216;SDS011;5152;59.674;16.838;2023-03-01T12:51:35;27.80;;;14.10;;
10216;SDS011;5152;59.674;16.838;2023-03-01T12:54:05;0.40;;;0.40;;
10216;SDS011;5152;59.674;16.838;2023-03-01T12:56:39;24.77;;;15.90;;
10216;SDS011;5152;59.674;16.838;2023-03-01T12:59:09;24.30;;;15.40;;
10216;SDS011;5152;59.674;16.838;2023-03-01T13:01:42;26.07;;;15.83;;
10216;SDS011;5152;59.674;16.838;2023-03-01T13:04:28;1.10;;;0.63;;
10216;SDS011;5152;59.674;16.838;2023-03-01T13:07:08;23.97;;;13.43;;
10216;SDS011;5152;59.674;16.838;2023-03-01T13:09:43;7.73;;;4.40;;
10216;SDS011;5152;59.674;16.838;2023-03-01T13:15:24;7.40;;;5.30;;
10216;SDS011;5152;59.674;16.838;2023-03-01T13:17:53;0.93;;;0.87;;
10216;SDS011;5152;59.674;16.838;2023-03-01T13:20:21;20.37;;;12.47;;
10216;SDS011;5152;59.674;16.838;2023-03-01T13:23:00;19.30;;;12.20;;
10216;SDS011;5152;59.674;16.838;2023-03-01T13:25:32;11.03;;;6.40;;
10216;SDS011;5152;59.674;16.838;2023-03-01T13:31:08;20.43;;;12.37;;
10216;SDS011;5152;59.674;16.838;2023-03-01T13:33:40;14.07;;;8.07;;
10216;SDS011;5152;59.674;16.838;2023-03-01T13:36:10;9.03;;;6.03;;
10216;SDS011;5152;59.674;16.838;2023-03-01T13:38:43;16.53;;;10.97;;
10216;SDS011;5152;59.674;16.838;2023-03-01T13:41:13;6.10;;;3.80;;
10216;SDS011;5152;59.674;16.838;2023-03-01T13:43:41;17.83;;;11.33;;
10216;SDS011;5152;59.674;16.838;2023-03-01T13:46:11;19.23;;;12.03;;
10216;SDS011;5152;59.674;16.838;2023-03-01T13:48:42;20.07;;;10.93;;
10216;SDS011;5152;59.674;16.838;2023-03-01T13:51:11;14.57;;;9.07;;
10216;SDS011;5152;59.674;16.838;2023-03-01T13:53:39;12.40;;;7.97;;
10216;SDS011;5152;59.674;16.838;2023-03-01T13:56:09;8.20;;;5.70;;
10216;SDS011;5152;59.674;16.838;2023-03-01T13:58:49;16.70;;;11.03;;
10216;SDS011;5152;59.674;16.838;2023-03-01T14:01:22;13.03;;;8.13;;
10216;SDS011;5152;59.674;16.838;2023-03-01T14:03:51;10.23;;;6.87;;
10216;SDS011;5152;59.674;16.838;2023-03-01T14:06:20;15.40;;;8.43;;
10216;SDS011;5152;59.674;16.838;2023-03-01T14:08:48;7.47;;;4.43;;
10216;SDS011;5152;59.674;16.838;2023-03-01T14:14:27;12.70;;;7.07;;
10216;SDS011;5152;59.674;16.838;2023-03-01T14:17:03;10.87;;;6.63;;
10216;SDS011;5152;59.674;16.838;2023-03-01T14:19:38;6.57;;;4.23;;
10216;SDS011;5152;59.674;16.838;2023-03-01T14:22:13;15.63;;;9.33;;
10216;SDS011;5152;59.674;16.838;2023-03-01T14:24:46;4.53;;;2.70;;
10216;SDS011;5152;59.674;16.838;2023-03-01T14:27:15;8.30;;;5.30;;
10216;SDS011;5152;59.674;16.838;2023-03-01T14:29:42;4.20;;;2.77;;
10216;SDS011;5152;59.674;16.838;2023-03-01T14:32:21;14.60;;;7.73;;
10216;SDS011;5152;59.674;16.838;2023-03-01T14:34:51;13.73;;;8.80;;
10216;SDS011;5152;59.674;16.838;2023-03-01T14:37:19;9.67;;;6.63;;
10216;SDS011;5152;59.674;16.838;2023-03-01T14:39:47;8.73;;;6.13;;
10216;SDS011;5152;59.674;16.838;2023-03-01T14:42:14;10.30;;;7.30;;
10216;SDS011;5152;59.674;16.838;2023-03-01T14:44:42;6.00;;;4.33;;
10216;SDS011;5152;59.674;16.838;2023-03-01T14:47:11;11.77;;;7.33;;
10216;SDS011;5152;59.674;16.838;2023-03-01T14:49:40;12.70;;;7.83;;
10216;SDS011;5152;59.674;16.838;2023-03-01T14:52:08;12.37;;;7.27;;
10216;SDS011;5152;59.674;16.838;2023-03-01T14:54:46;12.90;;;7.33;;
10216;SDS011;5152;59.674;16.838;2023-03-01T14:57:14;8.63;;;6.00;;
10216;SDS011;5152;59.674;16.838;2023-03-01T14:59:42;12.57;;;7.70;;